createdAt,value
2023-01-17T00:00:21.214Z,47.3
2023-01-17T00:01:22.618Z,47.4
2023-01-17T00:02:24.122Z,47.3
2023-01-17T00:03:25.676Z,47.1
2023-01-17T00:04:27.159Z,47.2
2023-01-17T00:05:28.547Z,47.2
2023-01-17T00:06:29.954Z,47.1
2023-01-17T00:07:31.358Z,47
2023-01-17T00:08:32.914Z,47.1
2023-01-17T00:09:34.366Z,47
2023-01-17T00:10:35.770Z,46.9
2023-01-17T00:11:37.169Z,46.9
2023-01-17T00:12:38.652Z,46.8
2023-01-17T00:13:40.050Z,46.9
2023-01-17T00:14:41.599Z,46.9
2023-01-17T00:15:43.065Z,46.9
2023-01-17T00:16:44.464Z,46.7
2023-01-17T00:17:45.878Z,46.8
2023-01-17T00:18:47.298Z,47
2023-01-17T00:19:48.714Z,46.8
2023-01-17T00:20:50.101Z,46.7
2023-01-17T00:21:51.511Z,46.5
2023-01-17T00:22:52.893Z,46.5
2023-01-17T00:23:54.341Z,46.5
2023-01-17T00:24:55.753Z,46.6
2023-01-17T00:25:57.168Z,46.3
2023-01-17T00:26:58.546Z,46.3
2023-01-17T00:27:59.966Z,46.5
2023-01-17T00:29:01.352Z,46.4
2023-01-17T00:30:02.787Z,46.2
2023-01-17T00:31:04.310Z,46.5
2023-01-17T00:32:05.743Z,46.4
2023-01-17T00:33:07.147Z,46.4
2023-01-17T00:34:08.557Z,46.2
2023-01-17T00:35:09.942Z,46.2
2023-01-17T00:36:11.377Z,46.2
2023-01-17T00:37:12.771Z,46.2
2023-01-17T00:38:14.171Z,46.5
2023-01-17T00:39:15.851Z,46.3
2023-01-17T00:40:17.235Z,46.2
2023-01-17T00:41:18.645Z,46.1
2023-01-17T00:42:20.053Z,46.3
2023-01-17T00:43:21.459Z,46.3
2023-01-17T00:44:22.859Z,46.3
2023-01-17T00:45:24.280Z,46.2
2023-01-17T00:46:25.851Z,46.1
2023-01-17T00:47:27.282Z,46.2
2023-01-17T00:48:28.680Z,46.1
2023-01-17T00:49:30.126Z,46.1
2023-01-17T00:50:31.683Z,46
2023-01-17T00:51:33.091Z,46.1
2023-01-17T00:52:34.482Z,46
2023-01-17T00:53:35.896Z,46.2
2023-01-17T00:54:37.349Z,46.1
2023-01-17T00:55:38.776Z,46.2
2023-01-17T00:56:40.185Z,46.2
2023-01-17T00:57:41.583Z,46.1
2023-01-17T00:58:43.017Z,45.8
2023-01-17T00:59:44.437Z,45.9
2023-01-17T01:00:46.253Z,45.8
2023-01-17T01:01:48.145Z,45.8
2023-01-17T01:02:49.801Z,45.8
2023-01-17T01:03:51.296Z,45.7
2023-01-17T01:04:52.690Z,45.7
2023-01-17T01:05:54.084Z,45.6
2023-01-17T01:06:55.466Z,45.7
2023-01-17T01:07:56.916Z,45.7
2023-01-17T01:08:58.283Z,45.8
2023-01-17T01:09:59.738Z,45.7
2023-01-17T01:11:01.190Z,45.6
2023-01-17T01:12:02.570Z,45.6
2023-01-17T01:13:03.954Z,45.7
2023-01-17T01:14:05.367Z,45.8
2023-01-17T01:15:06.802Z,45.7
2023-01-17T01:16:08.308Z,45.7
2023-01-17T01:17:09.800Z,45.7
2023-01-17T01:18:11.180Z,45.6
2023-01-17T01:19:12.573Z,45.7
2023-01-17T01:20:13.979Z,45.6
2023-01-17T01:21:15.362Z,45.6
2023-01-17T01:22:16.755Z,45.6
2023-01-17T01:23:18.154Z,45.6
2023-01-17T01:24:19.605Z,45.6
2023-01-17T01:25:21.103Z,45.6
2023-01-17T01:26:22.516Z,45.6
2023-01-17T01:27:23.919Z,45.5
2023-01-17T01:28:25.326Z,45.7
2023-01-17T01:29:26.724Z,45.6
2023-01-17T01:30:28.127Z,45.6
2023-01-17T01:31:29.736Z,45.5
2023-01-17T01:32:31.161Z,45.3
2023-01-17T01:33:32.545Z,45.6
2023-01-17T01:34:33.964Z,45.6
2023-01-17T01:35:35.370Z,45.6
2023-01-17T01:36:36.775Z,45.6
2023-01-17T01:37:38.257Z,45.5
2023-01-17T01:38:39.659Z,45.5
2023-01-17T01:39:41.038Z,45.5
2023-01-17T01:40:42.496Z,45.5
2023-01-17T01:41:43.899Z,45.5
2023-01-17T01:42:45.272Z,45.5
2023-01-17T01:43:46.832Z,45.5
2023-01-17T01:44:48.329Z,45.3
2023-01-17T01:45:49.824Z,45.5
2023-01-17T01:46:51.294Z,45.5
2023-01-17T01:47:52.688Z,45.5
2023-01-17T01:48:54.106Z,45.4
2023-01-17T01:49:55.528Z,45.3
2023-01-17T01:50:56.947Z,45.3
2023-01-17T01:51:58.359Z,45.4
2023-01-17T01:52:59.744Z,45.1
2023-01-17T01:54:01.293Z,45.1
2023-01-17T01:55:02.679Z,45.1
2023-01-17T01:56:04.113Z,45
2023-01-17T01:57:05.509Z,45.3
2023-01-17T01:58:06.992Z,44.9
2023-01-17T01:59:08.383Z,45.1
2023-01-17T02:00:09.795Z,45
2023-01-17T02:01:11.484Z,45
2023-01-17T02:02:13.021Z,44.8
2023-01-17T02:03:14.437Z,45
2023-01-17T02:04:15.840Z,45
2023-01-17T02:05:17.250Z,45
2023-01-17T02:06:18.667Z,45
2023-01-17T02:07:20.216Z,44.8
2023-01-17T02:08:21.619Z,44.7
2023-01-17T02:09:23.048Z,44.7
2023-01-17T02:10:24.446Z,44.9
2023-01-17T02:11:25.899Z,44.7
2023-01-17T02:12:27.316Z,44.8
2023-01-17T02:13:28.714Z,44.8
2023-01-17T02:14:30.127Z,44.7
2023-01-17T02:15:31.534Z,44.6
2023-01-17T02:16:33.165Z,44.9
2023-01-17T02:17:34.675Z,44.9
2023-01-17T02:18:36.183Z,44.7
2023-01-17T02:19:37.576Z,44.6
2023-01-17T02:20:38.965Z,44.7
2023-01-17T02:21:40.374Z,44.6
2023-01-17T02:22:41.785Z,44.7
2023-01-17T02:23:43.176Z,44.6
2023-01-17T02:24:44.581Z,44.6
2023-01-17T02:25:46.082Z,44.6
2023-01-17T02:26:47.543Z,44.6
2023-01-17T02:27:48.963Z,44.5
2023-01-17T02:28:50.362Z,44.6
2023-01-17T02:29:51.765Z,44.5
2023-01-17T02:30:53.157Z,44.5
2023-01-17T02:31:54.668Z,44.5
2023-01-17T02:32:56.074Z,44.5
2023-01-17T02:33:57.475Z,44.5
2023-01-17T02:34:58.878Z,44.4
2023-01-17T02:36:00.674Z,44.4
2023-01-17T02:37:02.277Z,44.6
2023-01-17T02:38:03.669Z,44.6
2023-01-17T02:39:05.079Z,44.5
2023-01-17T02:40:06.533Z,44.5
2023-01-17T02:41:08.197Z,44.4
2023-01-17T02:42:09.654Z,44.6
2023-01-17T02:43:11.144Z,44.5
2023-01-17T02:44:12.535Z,44.4
2023-01-17T02:45:13.929Z,44.4
2023-01-17T02:46:15.533Z,44.2
2023-01-17T02:47:17.105Z,44.3
2023-01-17T02:48:18.650Z,44.4
2023-01-17T02:49:20.042Z,44.5
2023-01-17T02:50:21.434Z,44.3
2023-01-17T02:51:22.833Z,44.3
2023-01-17T02:52:24.231Z,44.4
2023-01-17T02:53:25.625Z,44.3
2023-01-17T02:54:27.028Z,44.3
2023-01-17T02:55:28.429Z,44.3
2023-01-17T02:56:32.786Z,44.3
2023-01-17T02:57:34.329Z,44.4
2023-01-17T02:58:35.738Z,44.3
2023-01-17T02:59:37.131Z,44.2
2023-01-17T03:00:38.683Z,44.3
2023-01-17T03:01:40.478Z,44.4
2023-01-17T03:02:42.157Z,44.3
2023-01-17T03:03:43.574Z,44.4
2023-01-17T03:04:45.016Z,44.4
2023-01-17T03:05:46.410Z,44.4
2023-01-17T03:06:47.792Z,44.4
2023-01-17T03:07:49.315Z,44.3
2023-01-17T03:08:50.728Z,44.2
2023-01-17T03:09:52.154Z,44.3
2023-01-17T03:10:53.556Z,44.3
2023-01-17T03:11:54.945Z,44.2
2023-01-17T03:12:56.379Z,44.3
2023-01-17T03:13:57.778Z,44.3
2023-01-17T03:14:59.206Z,44.4
2023-01-17T03:16:00.590Z,44.4
2023-01-17T03:17:02.016Z,44.4
2023-01-17T03:18:03.416Z,44.4
2023-01-17T03:19:04.809Z,44.3
2023-01-17T03:20:06.222Z,44.4
2023-01-17T03:21:07.628Z,44.3
2023-01-17T03:22:09.018Z,44.4
2023-01-17T03:23:10.412Z,44.4
2023-01-17T03:24:11.798Z,44.3
2023-01-17T03:25:13.193Z,44.4
2023-01-17T03:26:14.638Z,44.3
2023-01-17T03:27:16.032Z,44.3
2023-01-17T03:28:17.490Z,44.3
2023-01-17T03:29:18.886Z,44.3
2023-01-17T03:30:20.295Z,44.3
2023-01-17T03:31:21.695Z,44.3
2023-01-17T03:32:23.119Z,44.3
2023-01-17T03:33:24.536Z,44.2
2023-01-17T03:34:25.915Z,44.2
2023-01-17T03:35:27.318Z,44.1
2023-01-17T03:36:28.712Z,44.2
2023-01-17T03:37:30.210Z,44.2
2023-01-17T03:38:31.608Z,44.2
2023-01-17T03:39:33.052Z,44.1
2023-01-17T03:40:34.485Z,44.1
2023-01-17T03:41:35.900Z,44.1
2023-01-17T03:42:37.297Z,44.1
2023-01-17T03:43:38.762Z,44.1
2023-01-17T03:44:40.126Z,44
2023-01-17T03:45:41.725Z,44.1
2023-01-17T03:46:43.129Z,44
2023-01-17T03:47:44.517Z,44
2023-01-17T03:48:45.946Z,44
2023-01-17T03:49:47.404Z,44
2023-01-17T03:50:48.855Z,44
2023-01-17T03:51:50.327Z,44
2023-01-17T03:52:51.722Z,44
2023-01-17T03:53:53.135Z,44
2023-01-17T03:54:54.584Z,43.9
2023-01-17T03:55:55.981Z,43.9
2023-01-17T03:56:57.431Z,43.8
2023-01-17T03:57:58.846Z,43.8
2023-01-17T03:59:00.297Z,43.6
2023-01-17T04:00:01.751Z,43.7
2023-01-17T04:01:03.463Z,43.8
2023-01-17T04:02:05.376Z,43.8
2023-01-17T04:03:06.900Z,43.7
2023-01-17T04:04:08.324Z,43.7
2023-01-17T04:05:09.724Z,43.7
2023-01-17T04:06:11.119Z,43.7
2023-01-17T04:07:12.580Z,43.7
2023-01-17T04:08:13.969Z,43.6
2023-01-17T04:09:15.451Z,43.7
2023-01-17T04:10:16.862Z,43.5
2023-01-17T04:11:18.289Z,43.5
2023-01-17T04:12:19.679Z,43.6
2023-01-17T04:13:21.066Z,43.6
2023-01-17T04:14:22.562Z,43.6
2023-01-17T04:15:23.992Z,43.6
2023-01-17T04:16:25.586Z,43.5
2023-01-17T04:17:26.984Z,43.6
2023-01-17T04:18:28.371Z,43.6
2023-01-17T04:19:29.780Z,43.4
2023-01-17T04:20:31.169Z,43.5
2023-01-17T04:21:32.668Z,43.5
2023-01-17T04:22:35.270Z,43.4
2023-01-17T04:23:36.675Z,43.6
2023-01-17T04:24:38.111Z,43.6
2023-01-17T04:25:39.522Z,43.4
2023-01-17T04:26:40.913Z,43.5
2023-01-17T04:27:42.314Z,43.5
2023-01-17T04:28:43.704Z,43.6
2023-01-17T04:29:47.070Z,43.6
2023-01-17T04:30:48.593Z,43.5
2023-01-17T04:31:50.064Z,43.7
2023-01-17T04:32:51.556Z,43.7
2023-01-17T04:33:53.021Z,43.5
2023-01-17T04:34:54.454Z,43.5
2023-01-17T04:35:55.857Z,43.7
2023-01-17T04:36:57.262Z,43.8
2023-01-17T04:37:58.663Z,43.9
2023-01-17T04:39:00.107Z,43.9
2023-01-17T04:40:01.532Z,43.9
2023-01-17T04:41:02.913Z,43.9
2023-01-17T04:42:04.316Z,44.1
2023-01-17T04:43:05.726Z,44.2
2023-01-17T04:44:07.136Z,44.3
2023-01-17T04:45:08.606Z,44.2
2023-01-17T04:46:10.338Z,44.4
2023-01-17T04:47:11.823Z,44.4
2023-01-17T04:48:13.280Z,44.4
2023-01-17T04:49:14.698Z,44.4
2023-01-17T04:50:16.091Z,44.5
2023-01-17T04:51:17.505Z,44.4
2023-01-17T04:52:18.925Z,44
2023-01-17T04:53:20.337Z,44.2
2023-01-17T04:54:21.763Z,44
2023-01-17T04:55:23.156Z,44.1
2023-01-17T04:56:24.671Z,44.2
2023-01-17T04:57:26.091Z,44.3
2023-01-17T04:58:27.515Z,44.1
2023-01-17T04:59:28.890Z,43.9
2023-01-17T05:00:30.353Z,43.9
2023-01-17T05:01:32.106Z,43.9
2023-01-17T05:02:33.786Z,43.9
2023-01-17T05:03:35.289Z,43.9
2023-01-17T05:04:36.705Z,44.1
2023-01-17T05:05:38.131Z,44.1
2023-01-17T05:06:39.568Z,44.1
2023-01-17T05:07:40.973Z,43.9
2023-01-17T05:08:42.380Z,44.1
2023-01-17T05:09:43.788Z,44
2023-01-17T05:10:45.187Z,44
2023-01-17T05:11:46.597Z,44
2023-01-17T05:12:49.377Z,43.9
2023-01-17T05:13:50.800Z,44
2023-01-17T05:14:52.193Z,43.9
2023-01-17T05:15:53.855Z,43.9
2023-01-17T05:16:55.269Z,44
2023-01-17T05:17:56.662Z,44
2023-01-17T05:18:58.066Z,44
2023-01-17T05:19:59.449Z,43.8
2023-01-17T05:21:00.862Z,43.9
2023-01-17T05:22:02.253Z,43.9
2023-01-17T05:23:03.627Z,43.8
2023-01-17T05:24:05.030Z,43.8
2023-01-17T05:25:06.454Z,43.7
2023-01-17T05:26:07.847Z,43.8
2023-01-17T05:27:09.241Z,43.7
2023-01-17T05:28:10.647Z,43.6
2023-01-17T05:29:12.058Z,43.7
2023-01-17T05:30:13.504Z,43.5
2023-01-17T05:31:15.073Z,43.5
2023-01-17T05:32:16.539Z,43.5
2023-01-17T05:33:17.938Z,43.6
2023-01-17T05:34:19.327Z,43.6
2023-01-17T05:35:20.716Z,43.6
2023-01-17T05:36:22.138Z,43.5
2023-01-17T05:37:23.537Z,43.5
2023-01-17T05:38:24.937Z,43.5
2023-01-17T05:39:26.348Z,43.6
2023-01-17T05:40:27.850Z,43.5
2023-01-17T05:41:29.248Z,43.5
2023-01-17T05:42:30.655Z,43.6
2023-01-17T05:43:32.058Z,43.5
2023-01-17T05:44:33.444Z,43.4
2023-01-17T05:45:34.905Z,43.3
2023-01-17T05:46:36.589Z,43.4
2023-01-17T05:47:38.172Z,43.4
2023-01-17T05:48:39.565Z,43.4
2023-01-17T05:49:40.990Z,43.3
2023-01-17T05:50:42.381Z,43.2
2023-01-17T05:51:43.799Z,43.2
2023-01-17T05:52:45.217Z,43.3
2023-01-17T05:53:46.620Z,43.2
2023-01-17T05:54:48.056Z,43
2023-01-17T05:55:49.496Z,43.1
2023-01-17T05:56:50.915Z,43
2023-01-17T05:57:52.313Z,43
2023-01-17T05:58:53.748Z,43
2023-01-17T05:59:55.151Z,43
2023-01-17T06:00:56.861Z,42.9
2023-01-17T06:01:58.382Z,42.9
2023-01-17T06:03:00.028Z,42.9
2023-01-17T06:04:01.535Z,42.8
2023-01-17T06:05:03.876Z,42.7
2023-01-17T06:06:05.290Z,42.8
2023-01-17T06:07:06.699Z,42.9
2023-01-17T06:08:08.113Z,42.8
2023-01-17T06:09:09.510Z,42.7
2023-01-17T06:10:10.909Z,42.7
2023-01-17T06:11:12.304Z,42.7
2023-01-17T06:12:13.695Z,42.7
2023-01-17T06:13:15.100Z,42.8
2023-01-17T06:14:16.492Z,42.7
2023-01-17T06:15:17.954Z,42.7
2023-01-17T06:16:19.530Z,42.6
2023-01-17T06:17:20.978Z,42.7
2023-01-17T06:18:22.371Z,42.7
2023-01-17T06:19:23.756Z,42.6
2023-01-17T06:20:25.141Z,42.6
2023-01-17T06:21:26.523Z,42.7
2023-01-17T06:22:27.907Z,42.7
2023-01-17T06:23:29.322Z,42.6
2023-01-17T06:24:30.740Z,42.7
2023-01-17T06:25:32.126Z,42.6
2023-01-17T06:26:33.533Z,42.7
2023-01-17T06:27:34.959Z,42.6
2023-01-17T06:28:36.386Z,42.6
2023-01-17T06:29:37.817Z,42.6
2023-01-17T06:30:39.217Z,42.5
2023-01-17T06:31:40.719Z,42.6
2023-01-17T06:32:42.294Z,42.6
2023-01-17T06:33:43.721Z,42.6
2023-01-17T06:34:45.156Z,42.5
2023-01-17T06:35:46.568Z,42.5
2023-01-17T06:36:48.009Z,42.5
2023-01-17T06:37:49.412Z,42.5
2023-01-17T06:38:50.843Z,42.5
2023-01-17T06:39:52.227Z,42.5
2023-01-17T06:40:53.620Z,42.6
2023-01-17T06:41:55.011Z,42.5
2023-01-17T06:42:56.437Z,42.5
2023-01-17T06:43:57.830Z,42.5
2023-01-17T06:44:59.257Z,42.5
2023-01-17T06:46:00.672Z,42.5
2023-01-17T06:47:02.074Z,42.4
2023-01-17T06:48:03.567Z,42.4
2023-01-17T06:49:04.975Z,42.5
2023-01-17T06:50:06.370Z,42.4
2023-01-17T06:51:07.807Z,42.4
2023-01-17T06:52:09.202Z,42.4
2023-01-17T06:53:10.639Z,42.4
2023-01-17T06:54:12.060Z,42.4
2023-01-17T06:55:13.475Z,42.5
2023-01-17T06:56:14.898Z,42.4
2023-01-17T06:57:16.322Z,42.4
2023-01-17T06:58:17.734Z,42.3
2023-01-17T06:59:19.145Z,42.4
2023-01-17T07:00:20.589Z,42.3
2023-01-17T07:01:22.259Z,42.3
2023-01-17T07:02:23.737Z,42.4
2023-01-17T07:03:25.209Z,42.4
2023-01-17T07:04:26.592Z,42.4
2023-01-17T07:05:28.018Z,42.2
2023-01-17T07:06:29.459Z,42.2
2023-01-17T07:07:33.910Z,42.3
2023-01-17T07:08:35.339Z,42.3
2023-01-17T07:09:36.827Z,42.4
2023-01-17T07:10:38.210Z,42.3
2023-01-17T07:11:39.631Z,42.2
2023-01-17T07:12:41.045Z,42.2
2023-01-17T07:13:42.474Z,42.2
2023-01-17T07:14:43.876Z,42.3
2023-01-17T07:15:45.286Z,42.3
2023-01-17T07:16:46.718Z,42.3
2023-01-17T07:17:48.126Z,42.3
2023-01-17T07:18:49.602Z,42.3
2023-01-17T07:19:51.029Z,42.3
2023-01-17T07:20:52.444Z,42.3
2023-01-17T07:21:53.853Z,42.2
2023-01-17T07:22:55.256Z,42.3
2023-01-17T07:23:56.684Z,42.3
2023-01-17T07:24:58.124Z,42.2
2023-01-17T07:25:59.632Z,42.3
2023-01-17T07:27:01.049Z,42.2
2023-01-17T07:28:02.470Z,42.1
2023-01-17T07:29:03.909Z,42.3
2023-01-17T07:30:05.297Z,42.3
2023-01-17T07:31:06.882Z,42.2
2023-01-17T07:32:08.291Z,42.2
2023-01-17T07:33:09.701Z,42.1
2023-01-17T07:34:11.155Z,42.1
2023-01-17T07:35:12.571Z,42.1
2023-01-17T07:36:13.985Z,42.1
2023-01-17T07:37:15.793Z,42.1
2023-01-17T07:38:17.231Z,42.1
2023-01-17T07:39:18.669Z,42
2023-01-17T07:40:20.120Z,42.1
2023-01-17T07:41:21.521Z,42.1
2023-01-17T07:42:24.548Z,42.1
2023-01-17T07:43:25.946Z,42.1
2023-01-17T07:44:27.341Z,42.1
2023-01-17T07:45:28.742Z,42.1
2023-01-17T07:46:30.306Z,42
2023-01-17T07:47:31.730Z,42
2023-01-17T07:48:33.147Z,42.1
2023-01-17T07:49:34.602Z,42
2023-01-17T07:50:36.017Z,42.1
2023-01-17T07:51:37.411Z,42.1
2023-01-17T07:52:38.827Z,42
2023-01-17T07:53:40.250Z,42
2023-01-17T07:54:41.687Z,41.9
2023-01-17T07:55:43.105Z,42
2023-01-17T07:56:44.504Z,41.9
2023-01-17T07:57:45.891Z,41.9
2023-01-17T07:58:47.292Z,41.9
2023-01-17T07:59:48.667Z,41.9
2023-01-17T08:00:50.321Z,42
2023-01-17T08:01:52.184Z,41.9
2023-01-17T08:02:53.779Z,41.9
2023-01-17T08:03:55.283Z,42
2023-01-17T08:04:56.812Z,42
2023-01-17T08:05:58.218Z,42
2023-01-17T08:06:59.626Z,42
2023-01-17T08:08:01.013Z,42
2023-01-17T08:09:02.444Z,42
2023-01-17T08:10:03.870Z,42
2023-01-17T08:11:05.292Z,42
2023-01-17T08:12:06.692Z,42
2023-01-17T08:13:08.103Z,42
2023-01-17T08:14:09.502Z,41.9
2023-01-17T08:15:10.880Z,41.9
2023-01-17T08:16:12.362Z,42
2023-01-17T08:17:13.841Z,41.9
2023-01-17T08:18:15.250Z,41.9
2023-01-17T08:19:16.655Z,42
2023-01-17T08:20:18.132Z,42
2023-01-17T08:21:19.531Z,41.9
2023-01-17T08:22:20.952Z,41.9
2023-01-17T08:23:22.383Z,41.9
2023-01-17T08:24:23.827Z,42
2023-01-17T08:25:25.255Z,42
2023-01-17T08:26:26.662Z,41.9
2023-01-17T08:27:28.048Z,41.9
2023-01-17T08:28:29.476Z,42
2023-01-17T08:29:30.918Z,42
2023-01-17T08:30:32.450Z,42
2023-01-17T08:31:33.952Z,42
2023-01-17T08:32:35.467Z,42
2023-01-17T08:33:36.927Z,42
2023-01-17T08:34:38.340Z,42
2023-01-17T08:35:39.812Z,41.9
2023-01-17T08:36:41.206Z,41.9
2023-01-17T08:37:42.599Z,42
2023-01-17T08:38:43.986Z,42
2023-01-17T08:39:45.394Z,42
2023-01-17T08:40:46.788Z,41.9
2023-01-17T08:41:48.230Z,41.9
2023-01-17T08:42:49.630Z,41.9
2023-01-17T08:43:51.029Z,42
2023-01-17T08:44:52.415Z,41.9
2023-01-17T08:45:53.858Z,41.9
2023-01-17T08:46:55.257Z,42
2023-01-17T08:47:56.689Z,42
2023-01-17T08:48:58.085Z,41.9
2023-01-17T08:49:59.621Z,42
2023-01-17T08:51:01.094Z,42
2023-01-17T08:52:02.500Z,42
2023-01-17T08:53:03.927Z,42
2023-01-17T08:54:05.352Z,41.9
2023-01-17T08:55:06.764Z,41.9
2023-01-17T08:56:08.167Z,41.9
2023-01-17T08:57:09.566Z,41.9
2023-01-17T08:58:10.953Z,41.9
2023-01-17T08:59:12.371Z,41.8
2023-01-17T09:00:13.766Z,41.9
2023-01-17T09:01:15.462Z,41.9
2023-01-17T09:02:16.993Z,41.8
2023-01-17T09:03:18.407Z,41.9
2023-01-17T09:04:19.993Z,41.9
2023-01-17T09:05:21.633Z,41.9
2023-01-17T09:06:23.168Z,41.8
2023-01-17T09:07:24.611Z,41.9
2023-01-17T09:08:25.989Z,41.8
2023-01-17T09:09:27.394Z,41.9
2023-01-17T09:10:28.817Z,41.8
2023-01-17T09:11:30.215Z,41.9
2023-01-17T09:12:31.624Z,41.8
2023-01-17T09:13:33.025Z,41.9
2023-01-17T09:14:34.432Z,41.9
2023-01-17T09:15:35.867Z,41.8
2023-01-17T09:16:37.371Z,41.8
2023-01-17T09:17:38.901Z,41.8
2023-01-17T09:18:40.313Z,41.8
2023-01-17T09:19:42.608Z,41.8
2023-01-17T09:20:44.023Z,41.8
2023-01-17T09:21:45.487Z,41.8
2023-01-17T09:22:46.884Z,41.8
2023-01-17T09:23:48.287Z,41.8
2023-01-17T09:24:49.680Z,41.9
2023-01-17T09:25:51.078Z,41.9
2023-01-17T09:26:52.476Z,41.9
2023-01-17T09:27:53.899Z,41.8
2023-01-17T09:28:55.321Z,41.8
2023-01-17T09:29:56.736Z,41.8
2023-01-17T09:30:58.352Z,41.8
2023-01-17T09:31:59.812Z,41.8
2023-01-17T09:33:01.192Z,41.8
2023-01-17T09:34:02.569Z,41.8
2023-01-17T09:35:03.959Z,41.8
2023-01-17T09:36:05.358Z,41.7
2023-01-17T09:37:06.823Z,41.8
2023-01-17T09:38:08.220Z,41.8
2023-01-17T09:39:09.613Z,41.8
2023-01-17T09:40:11.032Z,41.8
2023-01-17T09:41:12.448Z,41.7
2023-01-17T09:42:13.851Z,41.8
2023-01-17T09:43:15.245Z,41.8
2023-01-17T09:44:16.653Z,41.8
2023-01-17T09:45:18.109Z,41.8
2023-01-17T09:46:19.526Z,41.8
2023-01-17T09:47:21.034Z,41.8
2023-01-17T09:48:22.520Z,41.7
2023-01-17T09:49:23.942Z,41.6
2023-01-17T09:50:25.349Z,41.6
2023-01-17T09:51:26.768Z,41.6
2023-01-17T09:52:28.220Z,41.6
2023-01-17T09:53:29.639Z,41.7
2023-01-17T09:54:31.109Z,41.7
2023-01-17T09:55:32.511Z,41.7
2023-01-17T09:56:33.918Z,41.6
2023-01-17T09:57:35.349Z,41.7
2023-01-17T09:58:36.732Z,41.7
2023-01-17T09:59:38.134Z,41.7
2023-01-17T10:00:39.586Z,41.6
2023-01-17T10:01:41.456Z,41.6
2023-01-17T10:02:43.248Z,41.7
2023-01-17T10:03:45.072Z,41.7
2023-01-17T10:04:46.659Z,41.6
2023-01-17T10:05:48.073Z,41.7
2023-01-17T10:06:49.528Z,41.7
2023-01-17T10:07:51.022Z,41.7
2023-01-17T10:08:52.422Z,41.7
2023-01-17T10:09:53.835Z,41.7
2023-01-17T10:10:55.253Z,41.7
2023-01-17T10:11:56.658Z,41.7
2023-01-17T10:12:58.023Z,41.8
2023-01-17T10:13:59.417Z,41.8
2023-01-17T10:15:00.809Z,41.7
2023-01-17T10:16:02.220Z,41.8
2023-01-17T10:17:03.646Z,41.8
2023-01-17T10:18:05.049Z,41.7
2023-01-17T10:19:06.441Z,41.7
2023-01-17T10:20:07.854Z,41.8
2023-01-17T10:21:09.237Z,41.8
2023-01-17T10:22:10.632Z,41.6
2023-01-17T10:23:12.089Z,41.7
2023-01-17T10:24:13.509Z,41.7
2023-01-17T10:25:14.923Z,41.6
2023-01-17T10:26:16.327Z,41.7
2023-01-17T10:27:17.727Z,41.7
2023-01-17T10:28:19.116Z,41.7
2023-01-17T10:29:21.400Z,41.7
2023-01-17T10:30:22.815Z,41.7
2023-01-17T10:31:24.198Z,41.6
2023-01-17T10:32:25.635Z,41.7
2023-01-17T10:33:27.055Z,41.7
2023-01-17T10:34:28.468Z,41.7
2023-01-17T10:35:29.879Z,41.7
2023-01-17T10:36:31.285Z,41.7
2023-01-17T10:37:32.764Z,41.7
2023-01-17T10:38:35.145Z,41.7
2023-01-17T10:39:36.555Z,41.7
2023-01-17T10:40:37.968Z,41.7
2023-01-17T10:41:39.400Z,41.7
2023-01-17T10:42:40.945Z,41.7
2023-01-17T10:43:42.357Z,41.6
2023-01-17T10:44:43.970Z,41.8
2023-01-17T10:45:45.485Z,41.7
2023-01-17T10:46:46.925Z,41.7
2023-01-17T10:47:48.350Z,41.7
2023-01-17T10:48:49.904Z,41.6
2023-01-17T10:49:53.963Z,41.7
2023-01-17T10:50:55.362Z,41.7
2023-01-17T10:51:56.758Z,41.6
2023-01-17T10:52:58.172Z,41.7
2023-01-17T10:54:02.101Z,41.6
2023-01-17T10:55:03.559Z,41.7
2023-01-17T10:56:04.969Z,41.7
2023-01-17T10:57:06.363Z,41.7
2023-01-17T10:58:07.757Z,41.7
2023-01-17T10:59:09.158Z,41.7
2023-01-17T11:00:10.554Z,41.7
2023-01-17T11:01:12.299Z,41.6
2023-01-17T11:02:14.154Z,41.7
2023-01-17T11:03:15.697Z,41.7
2023-01-17T11:04:17.096Z,41.7
2023-01-17T11:05:18.498Z,41.6
2023-01-17T11:06:19.950Z,41.6
2023-01-17T11:07:21.374Z,41.6
2023-01-17T11:08:22.847Z,41.7
2023-01-17T11:09:24.284Z,41.6
2023-01-17T11:10:25.674Z,41.6
2023-01-17T11:11:27.088Z,41.6
2023-01-17T11:12:28.534Z,41.6
2023-01-17T11:13:29.933Z,41.6
2023-01-17T11:14:31.361Z,41.6
2023-01-17T11:15:32.800Z,41.5
2023-01-17T11:16:34.239Z,41.5
2023-01-17T11:17:35.665Z,41.5
2023-01-17T11:18:37.073Z,41.6
2023-01-17T11:19:38.477Z,41.5
2023-01-17T11:20:39.897Z,41.5
2023-01-17T11:21:41.412Z,41.5
2023-01-17T11:22:42.891Z,41.5
2023-01-17T11:23:44.272Z,41.6
2023-01-17T11:24:45.730Z,41.5
2023-01-17T11:25:47.148Z,41.5
2023-01-17T11:26:48.531Z,41.4
2023-01-17T11:27:49.935Z,41.5
2023-01-17T11:28:51.341Z,41.4
2023-01-17T11:29:52.731Z,41.4
2023-01-17T11:30:54.225Z,41.4
2023-01-17T11:31:55.738Z,41.3
2023-01-17T11:32:57.145Z,41.3
2023-01-17T11:33:58.553Z,41.3
2023-01-17T11:34:59.970Z,41.3
2023-01-17T11:36:01.600Z,41.2
2023-01-17T11:37:03.177Z,41.3
2023-01-17T11:38:04.604Z,41.2
2023-01-17T11:39:06.142Z,41.2
2023-01-17T11:40:07.610Z,41.3
2023-01-17T11:41:09.005Z,41.3
2023-01-17T11:42:10.417Z,41.3
2023-01-17T11:43:11.827Z,41.3
2023-01-17T11:44:13.232Z,41.3
2023-01-17T11:45:14.644Z,41.2
2023-01-17T11:46:16.216Z,41.2
2023-01-17T11:47:17.657Z,41.3
2023-01-17T11:48:19.095Z,41.3
2023-01-17T11:49:20.509Z,41.2
2023-01-17T11:50:21.923Z,41.2
2023-01-17T11:51:23.325Z,41.2
2023-01-17T11:52:24.768Z,41.1
2023-01-17T11:53:26.160Z,41.2
2023-01-17T11:54:27.557Z,41
2023-01-17T11:55:29.042Z,41.1
2023-01-17T11:56:30.473Z,41
2023-01-17T11:57:31.881Z,41
2023-01-17T11:58:33.262Z,41
2023-01-17T11:59:34.691Z,41
2023-01-17T12:00:36.106Z,41
2023-01-17T12:01:37.495Z,40.9
2023-01-17T12:02:39.083Z,41
2023-01-17T12:03:40.518Z,41
2023-01-17T12:04:42.081Z,40.9
2023-01-17T12:05:43.613Z,40.9
2023-01-17T12:06:58.542Z,40.9
2023-01-17T12:08:00.122Z,40.8
2023-01-17T12:09:01.564Z,40.8
2023-01-17T12:10:02.987Z,40.8
2023-01-17T12:11:04.452Z,40.8
2023-01-17T12:12:05.884Z,40.9
2023-01-17T12:13:07.302Z,41
2023-01-17T12:14:08.739Z,41
2023-01-17T12:15:10.130Z,41
2023-01-17T12:16:11.566Z,40.9
2023-01-17T12:17:13.003Z,40.9
2023-01-17T12:18:14.449Z,41
2023-01-17T12:19:15.872Z,40.9
2023-01-17T12:20:17.285Z,40.9
2023-01-17T12:21:18.677Z,40.9
2023-01-17T12:22:20.081Z,40.9
2023-01-17T12:23:21.483Z,40.9
2023-01-17T12:24:23.250Z,40.8
2023-01-17T12:25:24.690Z,40.9
2023-01-17T12:26:26.196Z,40.8
2023-01-17T12:27:27.617Z,40.9
2023-01-17T12:28:29.040Z,40.9
2023-01-17T12:29:30.483Z,40.9
2023-01-17T12:30:31.905Z,41
2023-01-17T12:31:33.429Z,40.9
2023-01-17T12:32:35.173Z,40.9
2023-01-17T12:33:36.592Z,40.9
2023-01-17T12:34:37.999Z,40.8
2023-01-17T12:35:39.413Z,40.8
2023-01-17T12:36:41.092Z,40.8
2023-01-17T12:37:42.498Z,40.8
2023-01-17T12:38:43.892Z,40.9
2023-01-17T12:39:45.294Z,40.8
2023-01-17T12:40:46.704Z,40.9
2023-01-17T12:41:48.155Z,40.8
2023-01-17T12:42:49.784Z,40.8
2023-01-17T12:43:51.196Z,40.8
2023-01-17T12:44:52.603Z,40.8
2023-01-17T12:45:53.994Z,40.7
2023-01-17T12:46:55.503Z,40.8
2023-01-17T12:47:56.980Z,40.9
2023-01-17T12:48:58.399Z,40.8
2023-01-17T12:49:59.844Z,40.8
2023-01-17T12:51:01.287Z,40.8
2023-01-17T12:52:02.671Z,40.9
2023-01-17T12:53:04.074Z,40.8
2023-01-17T12:54:05.465Z,40.8
2023-01-17T12:55:06.886Z,40.8
2023-01-17T12:56:08.293Z,40.8
2023-01-17T12:57:09.731Z,40.8
2023-01-17T12:58:11.108Z,40.8
2023-01-17T12:59:12.501Z,40.8
2023-01-17T13:00:13.915Z,40.8
2023-01-17T13:01:15.770Z,40.8
2023-01-17T13:02:17.502Z,40.8
2023-01-17T13:03:18.925Z,40.8
2023-01-17T13:04:20.317Z,40.7
2023-01-17T13:05:21.763Z,40.8
2023-01-17T13:06:23.163Z,40.7
2023-01-17T13:07:24.566Z,40.9
2023-01-17T13:08:25.957Z,40.8
2023-01-17T13:09:27.373Z,40.8
2023-01-17T13:10:32.031Z,40.8
2023-01-17T13:11:33.664Z,40.8
2023-01-17T13:12:35.115Z,40.8
2023-01-17T13:13:36.534Z,40.8
2023-01-17T13:14:37.947Z,40.8
2023-01-17T13:15:39.363Z,40.9
2023-01-17T13:16:42.439Z,40.8
2023-01-17T13:17:43.847Z,40.8
2023-01-17T13:18:45.258Z,40.7
2023-01-17T13:19:46.670Z,40.6
2023-01-17T13:20:48.063Z,40.8
2023-01-17T13:21:49.478Z,40.8
2023-01-17T13:22:50.919Z,40.7
2023-01-17T13:23:52.373Z,40.7
2023-01-17T13:24:53.796Z,40.7
2023-01-17T13:25:55.192Z,40.7
2023-01-17T13:26:56.613Z,40.6
2023-01-17T13:27:58.052Z,40.6
2023-01-17T13:28:59.470Z,40.6
2023-01-17T13:30:00.892Z,40.5
2023-01-17T13:31:02.288Z,40.5
2023-01-17T13:32:03.697Z,40.6
2023-01-17T13:33:05.109Z,40.6
2023-01-17T13:34:06.523Z,40.5
2023-01-17T13:35:07.917Z,40.6
2023-01-17T13:36:09.346Z,40.6
2023-01-17T13:37:10.756Z,40.6
2023-01-17T13:38:12.160Z,40.4
2023-01-17T13:39:13.570Z,40.5
2023-01-17T13:40:14.982Z,40.5
2023-01-17T13:41:16.375Z,40.5
2023-01-17T13:42:17.799Z,40.5
2023-01-17T13:43:19.238Z,40.4
2023-01-17T13:44:20.660Z,40.5